Time;durP1;ratioP1;P1;durP2;ratioP2;P2;SDS_P1;SDS_P2;PMS_P1;PMS_P2;Temp;Humidity;BMP_temperature;BMP_pressure;BME280_temperature;BME280_humidity;BME280_pressure;Samples;Min_cycle;Max_cycle;Signal;HPM_P1;HPM_P2
2022/12/05 00:03:04;;;;;;;31.08;18.02;;;;;;;7.51;100.00;98102.50;10466383;28;20535;-84
2022/12/05 00:08:05;;;;;;;38.03;20.65;;;;;;;7.42;100.00;98107.78;10476082;28;20491;-84
2022/12/05 00:13:06;;;;;;;37.60;20.02;;;;;;;7.45;100.00;98103.72;10468442;28;20052;-84
2022/12/05 00:18:07;;;;;;;36.95;19.48;;;;;;;7.46;100.00;98116.75;10458835;28;20114;-82
2022/12/05 00:23:07;;;;;;;39.28;21.67;;;;;;;7.61;100.00;98126.25;10455403;28;20073;-79
2022/12/05 00:28:08;;;;;;;39.95;19.92;;;;;;;7.54;100.00;98134.69;10469115;28;20682;-80
2022/12/05 00:33:08;;;;;;;39.97;20.42;;;;;;;7.54;100.00;98134.69;10458583;28;20052;-81
2022/12/05 00:38:09;;;;;;;40.80;20.10;;;;;;;7.39;100.00;98137.75;10461352;28;20137;-83
2022/12/05 00:43:10;;;;;;;40.63;19.67;;;;;;;7.65;100.00;98135.22;10452255;28;20048;-81
2022/12/05 00:48:10;;;;;;;39.38;19.67;;;;;;;7.65;100.00;98135.22;10465686;28;20032;-81
2022/12/05 00:53:11;;;;;;;39.53;20.67;;;;;;;7.61;100.00;98145.75;10463848;28;20123;-81
2022/12/05 00:58:11;;;;;;;37.95;20.20;;;;;;;7.60;100.00;98146.06;10460946;28;20048;-81
2022/12/05 01:03:13;;;;;;;41.40;20.38;;;;;;;7.64;100.00;98150.47;10474051;28;20048;-81
2022/12/05 01:08:14;;;;;;;43.03;21.27;;;;;;;7.81;100.00;98154.31;10509261;28;20041;-79
2022/12/05 01:13:14;;;;;;;46.65;22.85;;;;;;;7.81;100.00;98154.31;10514909;28;20025;-77
2022/12/05 01:18:16;;;;;;;46.42;21.33;;;;;;;7.81;100.00;98154.31;10510399;28;20101;-78
2022/12/05 01:23:17;;;;;;;44.92;21.65;;;;;;;7.53;100.00;98170.50;10507526;28;20039;-79
2022/12/05 01:28:20;;;;;;;43.65;21.80;;;;;;;7.53;100.00;98170.50;10497615;28;20157;-79
2022/12/05 01:33:21;;;;;;;52.08;24.08;;;;;;;7.53;100.00;98170.50;10504287;28;20119;-80
2022/12/05 01:38:23;;;;;;;48.60;23.87;;;;;;;7.54;100.00;98190.78;10487216;28;20037;-84
2022/12/05 01:43:24;;;;;;;50.35;22.65;;;;;;;7.54;100.00;98190.78;10489750;28;20025;-82
2022/12/05 01:48:33;;;;;;;52.30;22.60;;;;;;;7.77;100.00;98202.22;10490209;28;20051;-81
2022/12/05 01:53:34;;;;;;;48.05;22.08;;;;;;;7.77;100.00;98196.09;10488171;28;20562;-84
2022/12/05 01:58:37;;;;;;;57.47;24.38;;;;;;;7.75;100.00;98219.66;10477882;28;20048;-80
2022/12/05 02:03:41;;;;;;;55.20;25.13;;;;;;;7.75;100.00;98219.66;10476343;28;20041;-83
2022/12/05 02:08:42;;;;;;;53.05;23.42;;;;;;;7.65;100.00;98236.72;10472813;28;20044;-84
2022/12/05 02:14:18;;;;;;;47.58;23.85;;;;;;;7.69;100.00;98243.06;10496511;28;20067;-79
2022/12/05 02:19:37;;;;;;;50.97;24.17;;;;;;;7.58;100.00;98234.47;10489600;28;20053;-77
2022/12/05 02:24:58;;;;;;;61.90;25.60;;;;;;;7.54;100.00;98241.53;10519009;28;20045;-77
2022/12/05 02:30:11;;;;;;;48.88;23.27;;;;;;;7.54;100.00;98241.53;10497793;28;20446;-83
2022/12/05 02:35:23;;;;;;;51.08;23.13;;;;;;;7.68;100.00;98244.13;10463832;28;20072;-82
2022/12/05 02:40:38;;;;;;;53.13;24.30;;;;;;;7.69;100.00;98259.09;10472545;28;20044;-83
2022/12/05 02:45:43;;;;;;;51.95;21.80;;;;;;;7.59;100.00;98259.28;10472678;28;20060;-82
2022/12/05 02:50:50;;;;;;;48.20;21.90;;;;;;;7.43;100.00;98272.25;10465314;28;20045;-81
2022/12/05 02:55:51;;;;;;;51.03;20.85;;;;;;;7.35;100.00;98273.75;10454279;28;20036;-80
2022/12/05 03:00:54;;;;;;;47.20;20.17;;;;;;;7.49;100.00;98271.00;10466253;28;20412;-81
2022/12/05 03:06:13;;;;;;;39.25;19.45;;;;;;;7.40;100.00;98286.16;10472079;28;20044;-83
2022/12/05 03:11:14;;;;;;;41.03;19.23;;;;;;;7.27;100.00;98295.03;10463554;28;20041;-83
2022/12/05 03:16:22;;;;;;;36.55;17.85;;;;;;;7.28;100.00;98296.59;10461480;28;20041;-81
2022/12/05 03:21:34;;;;;;;32.28;17.27;;;;;;;7.27;100.00;98298.47;10464006;28;20374;-82
2022/12/05 03:26:39;;;;;;;28.98;15.68;;;;;;;6.94;100.00;98297.81;10465514;28;20041;-82
2022/12/05 03:32:29;;;;;;;31.42;17.77;;;;;;;7.38;100.00;98299.81;10456612;28;20049;-79
2022/12/05 03:38:07;;;;;;;27.30;14.20;;;;;;;7.08;100.00;98289.81;10439680;28;20118;-84
2022/12/05 03:43:34;;;;;;;25.60;13.90;;;;;;;7.16;100.00;98270.44;10425167;28;20136;-80
2022/12/05 03:48:52;;;;;;;24.75;14.43;;;;;;;7.00;100.00;98258.50;10465182;28;20444;-83
2022/12/05 03:54:09;;;;;;;32.70;15.52;;;;;;;7.08;100.00;98281.81;10466231;28;20040;-78
2022/12/05 03:59:28;;;;;;;23.60;14.23;;;;;;;7.07;100.00;98298.91;10486217;28;20045;-81
2022/12/05 04:04:37;;;;;;;23.55;13.40;;;;;;;7.06;100.00;98305.34;10483875;28;20040;-79
2022/12/05 04:09:54;;;;;;;24.05;14.13;;;;;;;7.05;100.00;98309.91;10490493;28;20045;-78
2022/12/05 04:15:00;;;;;;;26.80;14.80;;;;;;;6.80;100.00;98329.88;10475861;28;20042;-80
2022/12/05 04:26:02;;;;;;;26.15;14.35;;;;;;;6.68;100.00;98350.13;10471976;28;20075;-78
2022/12/05 04:31:15;;;;;;;24.90;13.38;;;;;;;6.82;100.00;98354.34;10474942;28;20049;-79
2022/12/05 04:36:30;;;;;;;24.67;13.90;;;;;;;6.92;100.00;98360.59;10483162;28;20053;-80
2022/12/05 04:41:52;;;;;;;24.25;13.73;;;;;;;6.29;100.00;98364.66;10489055;28;20029;-82
2022/12/05 04:46:56;;;;;;;23.35;12.25;;;;;;;6.37;100.00;98373.84;10487004;28;20068;-80
2022/12/05 04:52:02;;;;;;;19.75;12.35;;;;;;;6.39;100.00;98375.13;10468706;28;20096;-80
2022/12/05 04:57:22;;;;;;;19.38;11.80;;;;;;;6.50;100.00;98386.44;10464415;28;20426;-83
2022/12/05 05:02:31;;;;;;;19.00;10.95;;;;;;;6.42;100.00;98373.78;10454307;28;20044;-83
2022/12/05 05:07:41;;;;;;;18.52;11.13;;;;;;;6.49;100.00;98372.31;10468282;28;20078;-81
2022/12/05 05:12:41;;;;;;;19.08;9.88;;;;;;;6.42;100.00;98385.22;10474357;28;20357;-81
2022/12/05 05:17:42;;;;;;;15.60;9.57;;;;;;;6.53;100.00;98385.84;10473920;28;20064;-83
2022/12/05 05:22:43;;;;;;;13.93;9.00;;;;;;;6.31;100.00;98394.50;10469442;28;20045;-80
2022/12/05 05:27:47;;;;;;;16.55;8.50;;;;;;;6.28;100.00;98393.19;10482057;28;20024;-77
2022/12/05 05:32:48;;;;;;;13.20;8.13;;;;;;;6.37;100.00;98401.31;10510301;28;20029;-77
2022/12/05 05:37:48;;;;;;;12.23;7.40;;;;;;;6.04;100.00;98405.06;10513722;28;20117;-79
2022/12/05 05:42:54;;;;;;;;;;;;;;;6.56;100.00;98406.56;10479373;28;20072;-84
2022/12/05 05:47:55;;;;;;;9.68;7.10;;;;;;;6.55;100.00;98405.78;10453954;28;19925;-83
2022/12/05 05:52:56;;;;;;;10.57;6.88;;;;;;;6.63;100.00;98407.00;10473102;28;20071;-79
2022/12/05 05:57:57;;;;;;;13.32;7.35;;;;;;;6.38;100.00;98408.22;10470506;28;20047;-81
2022/12/05 06:02:57;;;;;;;10.73;6.85;;;;;;;6.35;100.00;98416.00;10473423;28;20052;-80
2022/12/05 06:07:58;;;;;;;11.02;7.63;;;;;;;6.28;100.00;98419.03;10460273;28;20052;-82
2022/12/05 06:12:59;;;;;;;11.75;6.95;;;;;;;6.14;100.00;98412.88;10469133;28;20536;-80
2022/12/05 06:18:01;;;;;;;11.50;7.65;;;;;;;6.38;100.00;98423.41;10461311;28;20458;-80
2022/12/05 06:23:01;;;;;;;11.32;7.25;;;;;;;6.26;100.00;98430.00;10467473;28;20041;-81
2022/12/05 06:28:02;;;;;;;11.98;7.65;;;;;;;6.22;100.00;98436.22;10476073;28;20056;-78
2022/12/05 06:33:02;;;;;;;15.45;8.48;;;;;;;6.38;100.00;98444.75;10461437;28;20056;-81
2022/12/05 06:38:03;;;;;;;16.00;8.10;;;;;;;6.31;100.00;98439.81;10486476;28;20109;-80
2022/12/05 06:43:03;;;;;;;16.00;8.18;;;;;;;5.91;100.00;98455.28;10492420;28;20045;-82
2022/12/05 06:48:05;;;;;;;17.15;8.77;;;;;;;5.98;100.00;98453.06;10478112;28;20052;-85
2022/12/05 06:53:05;;;;;;;18.65;9.85;;;;;;;5.98;100.00;98458.41;10485476;28;20051;-80
2022/12/05 06:58:06;;;;;;;18.52;9.63;;;;;;;6.06;100.00;98464.94;10478548;28;20113;-81
2022/12/05 07:03:14;;;;;;;17.33;9.20;;;;;;;5.79;100.00;98470.88;10762585;22;20088;-81
2022/12/05 07:08:15;;;;;;;20.80;11.15;;;;;;;6.22;100.00;98479.66;10949715;22;20029;-79
2022/12/05 07:13:16;;;;;;;21.92;10.48;;;;;;;6.18;100.00;98477.84;10580020;22;20029;-80
2022/12/05 07:18:17;;;;;;;21.08;10.80;;;;;;;5.98;100.00;98476.25;10463430;28;20025;-80
2022/12/05 07:23:17;;;;;;;18.73;9.60;;;;;;;6.01;100.00;98472.22;10546901;23;20029;-81
2022/12/05 07:28:18;;;;;;;22.30;10.40;;;;;;;5.78;100.00;98482.63;10421582;28;20139;-81
2022/12/05 07:33:19;;;;;;;21.25;11.43;;;;;;;5.92;100.00;98504.03;10406591;28;20076;-78
2022/12/05 07:38:19;;;;;;;25.83;12.07;;;;;;;5.89;100.00;98504.59;10409271;28;20413;-80
2022/12/05 07:43:20;;;;;;;25.27;12.32;;;;;;;5.58;100.00;98509.50;10414709;28;20049;-81
2022/12/05 07:48:21;;;;;;;26.85;12.20;;;;;;;5.63;100.00;98515.53;10407197;28;20045;-78
2022/12/05 07:53:21;;;;;;;28.13;12.82;;;;;;;5.61;100.00;98524.91;10409598;28;20045;-80
2022/12/05 07:58:23;;;;;;;31.05;15.13;;;;;;;5.62;100.00;98537.91;10408794;28;20038;-81
2022/12/05 08:03:26;;;;;;;26.35;11.93;;;;;;;5.81;100.00;98537.97;10411093;28;20386;-82
2022/12/05 08:08:27;;;;;;;29.63;12.55;;;;;;;5.48;100.00;98537.00;10434148;28;20489;-79
2022/12/05 08:13:28;;;;;;;24.25;12.30;;;;;;;5.39;100.00;98542.19;10422575;28;20071;-81
2022/12/05 08:18:29;;;;;;;26.80;12.02;;;;;;;5.56;100.00;98533.72;10410144;28;20044;-80
2022/12/05 08:23:30;;;;;;;27.73;12.77;;;;;;;5.86;100.00;98537.13;10439070;28;20025;-78
2022/12/05 08:28:31;;;;;;;23.52;11.27;;;;;;;5.84;100.00;98544.59;10403546;28;20127;-78
2022/12/05 08:33:36;;;;;;;28.08;12.48;;;;;;;5.83;100.00;98554.44;10412767;28;20105;-79
2022/12/05 08:38:38;;;;;;;27.80;12.32;;;;;;;5.74;100.00;98553.50;10418904;28;20030;-78
2022/12/05 08:43:39;;;;;;;25.23;12.27;;;;;;;5.80;100.00;98571.00;10428168;28;20117;-80
2022/12/05 08:48:39;;;;;;;27.60;12.38;;;;;;;5.96;100.00;98571.66;10432111;28;20030;-78
2022/12/05 08:53:40;;;;;;;23.83;11.82;;;;;;;5.78;100.00;98581.16;10412399;28;20038;-82
2022/12/05 08:58:41;;;;;;;23.65;12.10;;;;;;;5.60;100.00;98581.88;10386587;28;20049;-79
2022/12/05 09:03:46;;;;;;;26.92;12.05;;;;;;;5.36;100.00;98593.28;10388306;28;20512;-80
2022/12/05 09:08:48;;;;;;;25.35;12.05;;;;;;;5.61;100.00;98596.78;10381520;28;20092;-80
2022/12/05 09:13:52;;;;;;;27.67;12.52;;;;;;;5.50;100.00;98619.28;10387476;28;20045;-80
2022/12/05 09:18:53;;;;;;;26.25;12.10;;;;;;;5.66;100.00;98615.34;10389242;28;20045;-81
2022/12/05 09:23:54;;;;;;;26.67;12.60;;;;;;;5.75;100.00;98634.19;10410997;28;20121;-80
2022/12/05 09:28:56;;;;;;;26.83;12.10;;;;;;;5.70;100.00;98632.38;10417637;28;20053;-79
2022/12/05 09:33:57;;;;;;;24.75;12.57;;;;;;;5.49;100.00;98629.13;10416859;28;20405;-79
2022/12/05 09:39:04;;;;;;;26.20;12.40;;;;;;;5.68;100.00;98626.53;10413348;28;20121;-78
2022/12/05 09:44:16;;;;;;;28.27;12.98;;;;;;;5.91;100.00;98636.44;10418366;28;20057;-79
2022/12/05 09:49:17;;;;;;;22.55;11.93;;;;;;;6.07;100.00;98629.06;10413750;28;20049;-80
2022/12/05 09:54:19;;;;;;;25.40;11.73;;;;;;;6.06;100.00;98634.69;10401495;28;20056;-78
2022/12/05 09:59:20;;;;;;;23.77;11.43;;;;;;;6.12;100.00;98625.53;10427209;28;20057;-79
2022/12/05 10:04:39;;;;;;;26.08;11.30;;;;;;;6.31;100.00;98625.56;10436779;28;20042;-78
2022/12/05 10:10:03;;;;;;;26.95;12.30;;;;;;;6.36;100.00;98626.31;10438256;28;20064;-78
2022/12/05 10:15:42;;;;;;;27.23;12.55;;;;;;;6.30;100.00;98616.78;10436911;28;20044;-79
2022/12/05 10:20:57;;;;;;;25.30;12.60;;;;;;;6.45;100.00;98627.25;10423399;28;20038;-78
2022/12/05 10:26:02;;;;;;;25.38;11.57;;;;;;;6.47;100.00;98624.28;10431929;28;20053;-80
2022/12/05 10:31:08;;;;;;;21.88;11.50;;;;;;;6.46;100.00;98625.38;10427043;28;20042;-78
2022/12/05 10:36:14;;;;;;;22.98;11.68;;;;;;;6.35;100.00;98616.72;10422758;28;20105;-78
2022/12/05 10:41:14;;;;;;;23.40;11.30;;;;;;;6.20;100.00;98624.91;10412731;28;20041;-80
2022/12/05 10:46:16;;;;;;;24.45;12.32;;;;;;;6.35;100.00;98623.94;10391013;28;20037;-79
2022/12/05 10:51:23;;;;;;;24.25;12.05;;;;;;;6.43;100.00;98624.09;10420619;28;20053;-79
2022/12/05 10:56:45;;;;;;;24.48;12.00;;;;;;;6.25;100.00;98624.84;10393465;28;20045;-80
2022/12/05 11:01:52;;;;;;;25.40;12.38;;;;;;;6.27;100.00;98620.81;10398609;28;20099;-81
2022/12/05 11:07:00;;;;;;;24.95;12.27;;;;;;;6.45;100.00;98611.25;10385054;28;20072;-79
2022/12/05 11:12:21;;;;;;;27.27;13.18;;;;;;;6.39;100.00;98614.28;10378728;28;20045;-80
2022/12/05 11:17:35;;;;;;;25.58;12.70;;;;;;;6.17;100.00;98623.63;10378328;28;20052;-81
2022/12/05 11:22:35;;;;;;;24.48;12.20;;;;;;;6.19;100.00;98624.13;10384971;28;20129;-80
2022/12/05 11:27:36;;;;;;;25.98;13.30;;;;;;;6.13;100.00;98622.63;10385791;28;20141;-80
2022/12/05 11:32:38;;;;;;;28.15;13.68;;;;;;;6.17;100.00;98620.16;10380508;28;20037;-79
2022/12/05 11:37:58;;;;;;;25.50;13.07;;;;;;;6.20;100.00;98612.38;10375774;28;20046;-79
2022/12/05 11:43:15;;;;;;;29.83;13.93;;;;;;;6.38;100.00;98602.03;10368024;28;20159;-81
2022/12/05 11:48:59;;;;;;;28.35;12.90;;;;;;;6.33;100.00;98612.78;10386986;28;20060;-79
2022/12/05 11:54:21;;;;;;;28.50;13.52;;;;;;;6.36;100.00;98601.53;10394071;28;20034;-77
2022/12/05 12:00:02;;;;;;;28.75;14.05;;;;;;;6.27;100.00;98601.38;10422276;28;20028;-79
2022/12/05 12:05:37;;;;;;;32.65;14.98;;;;;;;6.40;100.00;98602.53;10430365;28;20544;-80
2022/12/05 12:11:02;;;;;;;28.48;14.18;;;;;;;6.32;100.00;98597.88;10383128;28;20045;-80
2022/12/05 12:16:12;;;;;;;30.77;14.98;;;;;;;6.30;100.00;98600.78;10377733;28;20144;-80
2022/12/05 12:21:23;;;;;;;35.70;15.90;;;;;;;6.55;100.00;98581.78;10383812;28;20478;-80
2022/12/05 12:26:45;;;;;;;30.83;14.35;;;;;;;6.66;100.00;98570.97;10397970;28;20049;-80
2022/12/05 12:32:07;;;;;;;32.20;15.10;;;;;;;6.91;100.00;98583.13;10387829;28;20637;-79
2022/12/05 12:37:20;;;;;;;27.80;13.40;;;;;;;6.96;100.00;98583.84;10397970;28;20045;-78
2022/12/05 12:42:26;;;;;;;26.70;14.38;;;;;;;7.07;100.00;98587.16;10410322;28;20640;-78
2022/12/05 12:48:02;;;;;;;23.48;12.40;;;;;;;7.12;100.00;98585.16;10395160;28;20562;-79
2022/12/05 12:53:27;;;;;;;22.67;11.95;;;;;;;6.85;100.00;98590.41;10405680;28;20049;-80
2022/12/05 12:58:56;;;;;;;22.38;11.60;;;;;;;6.55;100.00;98592.44;10417565;28;20452;-79
2022/12/05 13:04:11;;;;;;;24.45;12.35;;;;;;;6.28;100.00;98597.63;10381749;28;20065;-80
2022/12/05 13:09:35;;;;;;;24.92;12.05;;;;;;;6.20;100.00;98600.91;10375344;28;20069;-81
2022/12/05 13:14:38;;;;;;;24.63;12.65;;;;;;;6.30;100.00;98600.00;10384407;28;20145;-79
2022/12/05 13:19:42;;;;;;;28.70;13.03;;;;;;;6.22;100.00;98593.47;10380278;28;20046;-83
2022/12/05 13:24:43;;;;;;;29.25;14.30;;;;;;;6.39;100.00;98592.94;10388721;28;20182;-82
2022/12/05 13:29:54;;;;;;;23.85;12.35;;;;;;;6.42;100.00;98590.50;10390700;28;20088;-81
2022/12/05 13:34:57;;;;;;;26.80;12.77;;;;;;;6.62;100.00;98588.63;10388604;28;20049;-80
2022/12/05 13:45:19;;;;;;;25.35;12.80;;;;;;;6.81;100.00;98590.22;10380554;28;20597;-78
2022/12/05 13:50:25;;;;;;;25.75;13.25;;;;;;;6.87;100.00;98595.47;10370112;28;20074;-79
2022/12/05 13:55:30;;;;;;;21.95;12.00;;;;;;;6.92;100.00;98584.72;10387314;28;20410;-79
2022/12/05 14:00:37;;;;;;;23.02;11.63;;;;;;;7.03;100.00;98591.47;10378833;28;20038;-77
2022/12/05 14:05:42;;;;;;;22.70;12.68;;;;;;;7.09;100.00;98588.44;10376787;28;20026;-78
2022/12/05 14:10:43;;;;;;;23.92;12.30;;;;;;;7.15;100.00;98593.69;10373459;28;20041;-79
2022/12/05 14:15:45;;;;;;;25.80;13.10;;;;;;;6.92;100.00;98601.50;10377323;28;20049;-78
2022/12/05 14:21:06;;;;;;;22.35;12.18;;;;;;;6.96;100.00;98594.53;10385756;28;20080;-79
2022/12/05 14:26:21;;;;;;;21.60;12.80;;;;;;;7.17;100.00;98596.84;10387708;28;20045;-81
2022/12/05 14:31:28;;;;;;;19.20;10.00;;;;;;;7.17;100.00;98592.31;10383384;28;20037;-78
2022/12/05 14:36:30;;;;;;;23.33;12.55;;;;;;;7.13;100.00;98599.31;10391744;28;20091;-78
2022/12/05 14:41:34;;;;;;;19.52;11.52;;;;;;;7.18;100.00;98590.44;10393436;28;20048;-78
2022/12/05 14:46:35;;;;;;;21.20;10.68;;;;;;;7.15;100.00;98591.81;10385411;28;20101;-77
2022/12/05 14:51:44;;;;;;;17.23;9.27;;;;;;;7.12;100.00;98590.50;10383821;28;20098;-77
2022/12/05 14:56:51;;;;;;;19.02;10.00;;;;;;;6.99;100.00;98585.94;10388177;28;20042;-78
2022/12/05 15:02:02;;;;;;;18.75;10.70;;;;;;;7.00;100.00;98586.72;10397947;28;20564;-78
2022/12/05 15:07:08;;;;;;;19.85;11.07;;;;;;;7.08;100.00;98584.19;10406449;28;20107;-79
2022/12/05 15:12:15;;;;;;;19.30;10.88;;;;;;;7.19;100.00;98582.13;10415604;28;20462;-77
2022/12/05 15:17:24;;;;;;;19.63;11.13;;;;;;;7.19;100.00;98592.00;10397712;28;20098;-78
2022/12/05 15:22:26;;;;;;;22.02;12.02;;;;;;;7.20;100.00;98591.72;10381735;28;20069;-78
2022/12/05 15:27:27;;;;;;;22.57;11.77;;;;;;;7.21;100.00;98592.50;10396337;28;20189;-79
2022/12/05 15:32:27;;;;;;;19.65;10.65;;;;;;;7.19;100.00;98594.69;10420694;28;20041;-77
2022/12/05 15:37:34;;;;;;;23.10;11.63;;;;;;;7.09;100.00;98600.97;10437656;28;20088;-77
2022/12/05 15:42:43;;;;;;;23.98;12.45;;;;;;;6.94;100.00;98607.34;10387800;28;20565;-79
2022/12/05 15:47:46;;;;;;;21.33;11.50;;;;;;;6.91;100.00;98607.16;10382941;28;20560;-78
2022/12/05 15:52:52;;;;;;;21.52;11.73;;;;;;;6.85;100.00;98611.75;10385447;28;20191;-78
2022/12/05 15:58:04;;;;;;;22.23;11.68;;;;;;;6.87;100.00;98606.16;10375060;28;20045;-77
2022/12/05 16:03:19;;;;;;;23.20;11.00;;;;;;;6.73;100.00;98608.75;10380665;28;20498;-79
2022/12/05 16:08:23;;;;;;;21.80;11.95;;;;;;;6.80;100.00;98617.19;10379134;28;20119;-77
2022/12/05 16:13:26;;;;;;;19.75;10.43;;;;;;;6.83;100.00;98619.25;10396766;28;20038;-78
2022/12/05 16:18:29;;;;;;;20.08;12.00;;;;;;;6.96;100.00;98628.41;10380729;28;20054;-78
2022/12/05 16:23:36;;;;;;;20.27;10.93;;;;;;;6.92;100.00;98630.84;10376088;28;20111;-77
2022/12/05 16:28:36;;;;;;;19.70;11.05;;;;;;;7.07;100.00;98635.19;10380553;28;20058;-78
2022/12/05 16:33:37;;;;;;;19.27;10.52;;;;;;;6.90;100.00;98635.69;10380101;28;20037;-78
2022/12/05 16:38:42;;;;;;;19.70;10.20;;;;;;;6.97;100.00;98638.81;10384260;28;20054;-79
2022/12/05 16:43:46;;;;;;;14.65;9.52;;;;;;;7.00;100.00;98640.88;10376566;28;20509;-78
2022/12/05 16:49:13;;;;;;;14.88;8.35;;;;;;;7.02;100.00;98635.25;10379257;28;20512;-78
2022/12/05 16:54:13;;;;;;;12.68;7.88;;;;;;;6.83;100.00;98643.28;10373951;28;20354;-77
2022/12/05 16:59:25;;;;;;;24.48;13.60;;;;;;;6.73;100.00;98646.09;10374981;28;20099;-81
2022/12/05 17:04:26;;;;;;;12.82;7.47;;;;;;;6.77;100.00;98641.78;10369761;28;20042;-77
2022/12/05 17:09:27;;;;;;;13.00;8.63;;;;;;;6.43;100.00;98655.28;10373135;28;20072;-79
2022/12/05 17:14:27;;;;;;;13.48;8.68;;;;;;;6.88;100.00;98659.22;10373842;28;20161;-78
2022/12/05 17:19:28;;;;;;;13.13;7.90;;;;;;;6.73;100.00;98670.09;10376574;28;20092;-79
2022/12/05 17:24:29;;;;;;;11.07;7.18;;;;;;;6.64;100.00;98669.94;10376231;28;20091;-78
2022/12/05 17:29:29;;;;;;;15.90;8.80;;;;;;;6.46;100.00;98679.50;10375666;28;20037;-80
2022/12/05 17:34:30;;;;;;;12.40;7.95;;;;;;;6.36;100.00;98674.28;10374737;28;20129;-78
2022/12/05 17:39:30;;;;;;;14.38;8.18;;;;;;;6.12;100.00;98679.63;10374286;28;20100;-78
2022/12/05 17:44:31;;;;;;;13.88;8.98;;;;;;;5.80;100.00;98688.19;10378750;28;20053;-78
2022/12/05 17:49:31;;;;;;;12.35;8.35;;;;;;;5.81;100.00;98689.78;10389949;28;20053;-79
2022/12/05 17:54:32;;;;;;;14.18;9.23;;;;;;;5.58;100.00;98683.34;10394656;28;20560;-80
2022/12/05 17:59:32;;;;;;;20.02;11.52;;;;;;;5.48;100.00;98688.75;10388740;28;20065;-79
2022/12/05 18:04:33;;;;;;;16.25;10.15;;;;;;;5.64;100.00;98692.06;10403381;28;20100;-79
2022/12/05 18:09:34;;;;;;;16.70;10.27;;;;;;;5.65;100.00;98683.78;10396726;28;20078;-78
2022/12/05 18:14:35;;;;;;;17.27;10.15;;;;;;;5.71;100.00;98676.56;10413406;28;21084;-79
2022/12/05 18:19:35;;;;;;;16.45;9.73;;;;;;;5.86;100.00;98673.75;10419692;28;20101;-77
2022/12/05 18:24:37;;;;;;;16.80;9.13;;;;;;;5.78;100.00;98671.72;10439006;28;20042;-76
2022/12/05 18:29:39;;;;;;;18.45;11.27;;;;;;;5.91;100.00;98667.59;10382952;28;20768;-79
2022/12/05 18:34:41;;;;;;;17.38;10.25;;;;;;;5.36;100.00;98673.13;10384841;28;20501;-78
2022/12/05 18:39:41;;;;;;;16.27;9.82;;;;;;;5.21;100.00;98664.47;10379521;28;20535;-77
2022/12/05 18:44:42;;;;;;;17.13;10.57;;;;;;;5.27;100.00;98672.16;10400506;28;20116;-80
2022/12/05 18:49:42;;;;;;;22.15;12.23;;;;;;;5.12;100.00;98680.22;10375932;28;20038;-79
2022/12/05 18:54:43;;;;;;;20.90;12.20;;;;;;;5.08;100.00;98685.31;10389895;28;20046;-79
2022/12/05 18:59:44;;;;;;;21.05;11.15;;;;;;;5.17;100.00;98695.38;10391098;28;20071;-80
2022/12/05 19:04:45;;;;;;;24.70;13.30;;;;;;;5.24;100.00;98701.97;10405966;28;20033;-79
2022/12/05 19:09:46;;;;;;;21.42;11.82;;;;;;;5.37;100.00;98697.88;10400034;28;20042;-78
2022/12/05 19:14:47;;;;;;;23.23;14.45;;;;;;;5.33;100.00;98700.31;10398212;28;20046;-79
2022/12/05 19:19:47;;;;;;;27.15;14.88;;;;;;;5.28;100.00;98708.31;10382953;28;20076;-79
2022/12/05 19:24:48;;;;;;;27.10;15.30;;;;;;;5.15;100.00;98706.31;10396878;28;20065;-79
2022/12/05 19:29:48;;;;;;;27.00;15.05;;;;;;;5.33;100.00;98700.31;10389807;28;20117;-80
2022/12/05 19:34:50;;;;;;;27.35;14.73;;;;;;;5.35;100.00;98703.50;10384014;28;20044;-80
2022/12/05 19:39:51;;;;;;;28.10;15.10;;;;;;;5.35;100.00;98698.16;10383256;28;20046;-78
2022/12/05 19:44:51;;;;;;;25.92;14.32;;;;;;;5.34;100.00;98696.59;10387693;28;20041;-81
2022/12/05 19:49:53;;;;;;;25.02;14.93;;;;;;;5.24;100.00;98704.66;10412783;28;20046;-80
2022/12/05 19:54:55;;;;;;;23.77;14.37;;;;;;;5.40;100.00;98711.44;10420977;28;20041;-78
2022/12/05 19:59:57;;;;;;;27.00;16.23;;;;;;;5.49;100.00;98705.53;10426407;28;20045;-79
2022/12/05 20:04:59;;;;;;;26.20;15.32;;;;;;;5.45;100.00;98705.28;10434213;28;20102;-78
2022/12/05 20:09:59;;;;;;;30.38;15.75;;;;;;;5.38;100.00;98702.13;10434675;28;20048;-80
2022/12/05 20:15:01;;;;;;;31.38;15.38;;;;;;;5.25;100.00;98708.09;10408102;28;20053;-78
2022/12/05 20:20:05;;;;;;;28.98;16.17;;;;;;;5.28;100.00;98708.31;10404166;28;20050;-79
2022/12/05 20:25:07;;;;;;;28.05;16.50;;;;;;;5.26;100.00;98709.69;10387391;28;20049;-80
2022/12/05 20:30:08;;;;;;;30.20;15.57;;;;;;;5.39;100.00;98704.53;10383672;28;20140;-84
2022/12/05 20:35:08;;;;;;;28.38;16.25;;;;;;;5.18;100.00;98704.94;10400407;28;20049;-80
2022/12/05 20:40:09;;;;;;;28.17;16.25;;;;;;;5.18;100.00;98704.94;10379997;28;20120;-79
2022/12/05 20:45:10;;;;;;;29.52;15.88;;;;;;;5.22;100.00;98692.69;10385477;28;20041;-78
2022/12/05 20:50:11;;;;;;;33.63;16.77;;;;;;;5.21;100.00;98688.41;10385410;28;20577;-79
2022/12/05 20:55:13;;;;;;;28.85;15.70;;;;;;;5.31;100.00;98669.75;10408699;28;20382;-80
2022/12/05 21:00:14;;;;;;;24.63;14.75;;;;;;;5.31;100.00;98669.75;10383159;28;20061;-81
2022/12/05 21:05:14;;;;;;;24.23;14.27;;;;;;;5.51;100.00;98685.53;10400825;28;20056;-83
2022/12/05 21:10:17;;;;;;;27.50;14.23;;;;;;;5.51;100.00;98685.53;10408110;28;20045;-80
2022/12/05 21:15:20;;;;;;;28.33;15.48;;;;;;;5.51;100.00;98685.53;10405134;28;20057;-83
2022/12/05 21:20:21;;;;;;;26.98;15.05;;;;;;;5.28;100.00;98671.06;10414826;28;20056;-82
2022/12/05 21:25:23;;;;;;;29.20;16.17;;;;;;;5.32;100.00;98660.69;10429200;28;20033;-81
2022/12/05 21:30:25;;;;;;;31.08;16.80;;;;;;;5.23;100.00;98647.19;10421642;28;20049;-81
2022/12/05 21:35:25;;;;;;;27.23;15.13;;;;;;;5.23;100.00;98647.19;10447159;28;20042;-84
2022/12/05 21:40:28;;;;;;;27.75;16.10;;;;;;;4.90;100.00;98651.41;10412598;28;20038;-83
2022/12/05 21:45:30;;;;;;;27.45;15.02;;;;;;;4.64;100.00;98656.06;10413386;28;20045;-82
2022/12/05 21:50:31;;;;;;;28.23;15.48;;;;;;;4.60;100.00;98665.69;10410834;28;20485;-81
2022/12/05 21:55:32;;;;;;;24.65;14.88;;;;;;;4.29;100.00;98668.47;10404849;28;20046;-81
2022/12/05 22:00:32;;;;;;;26.13;14.32;;;;;;;4.13;100.00;98669.59;10397022;28;20486;-83
2022/12/05 22:05:34;;;;;;;33.25;18.70;;;;;;;4.13;100.00;98669.59;10406146;28;20034;-84
2022/12/05 22:10:37;;;;;;;34.08;18.73;;;;;;;4.09;100.00;98681.03;10393198;28;20624;-83
2022/12/05 22:15:39;;;;;;;31.08;16.55;;;;;;;4.20;100.00;98683.38;10394446;28;20054;-81
2022/12/05 22:20:40;;;;;;;29.58;16.70;;;;;;;4.16;100.00;98676.22;10388034;28;20042;-82
2022/12/05 22:25:40;;;;;;;32.38;17.60;;;;;;;4.21;100.00;98669.03;10385281;28;20058;-82
2022/12/05 22:30:45;;;;;;;30.73;17.27;;;;;;;4.14;100.00;98662.44;10384711;28;20050;-81
2022/12/05 22:35:55;;;;;;;32.03;17.98;;;;;;;4.14;100.00;98689.00;10400837;28;20321;-79
2022/12/05 22:41:00;;;;;;;26.98;15.43;;;;;;;3.81;100.00;98661.19;10432636;28;20048;-78
2022/12/05 22:46:13;;;;;;;28.90;16.07;;;;;;;3.58;100.00;98665.22;10434912;28;20030;-79
2022/12/05 22:51:16;;;;;;;29.80;17.35;;;;;;;3.21;100.00;98668.94;10397635;28;20121;-82
2022/12/05 22:56:18;;;;;;;29.08;17.38;;;;;;;3.25;100.00;98675.31;10390463;28;20379;-81
2022/12/05 23:01:27;;;;;;;37.03;19.00;;;;;;;3.19;100.00;98673.69;10393055;28;20034;-81
2022/12/05 23:06:30;;;;;;;36.55;18.13;;;;;;;3.16;100.00;98668.94;10404807;28;20129;-83
2022/12/05 23:11:31;;;;;;;30.38;16.15;;;;;;;3.12;100.00;98670.53;10451127;28;20029;-81
2022/12/05 23:16:32;;;;;;;27.20;15.90;;;;;;;3.10;100.00;98659.38;10433241;28;20128;-82
2022/12/05 23:21:36;;;;;;;33.85;18.52;;;;;;;3.23;100.00;98661.50;10385961;28;20107;-82
2022/12/05 23:26:42;;;;;;;38.67;20.90;;;;;;;3.07;100.00;98657.25;10391260;28;20136;-80